Fort Leonard Wood, Missouri
Current Conditions -  °F | °C
As of 3:58 PM on Saturday 25 Oct 2014 (Local Time) from KTBN Reporting Station
Clear Clear  
Wind Chill: 81°   Ceiling: Unl
Heat Index: 82°   Visibility: 10mi
Dew Point: 59°   Wind: 5mph
Humidity: 47%   Direction: 330°NNW
Pressure: 30.03"   Gusts: NA
Location:  37.77°N, 92.12°W
Report Text: KTBN 252058Z AUTO 33004KT 10SM CLR 27/15 A3003 RMK AO2 SLP164 T02730151 55009
Loading
Personal Weather Stations






























Interactive Weather Map
Tropical Storm Tracking
New forecast layout! Learn more

10-Day Weather Forecast

Advertisements
Track Severe Weather on mobile